To NAV CANADA Home Page Login to a new session Search on AWWS site Feedback and Comments Disclaimer Vers la page française équivalente Tips FAQ What's new on the site To the Forecasts and Observations / NOTAM section To "File a Flight Plan" website Publications and other links Update of the User's profile FIC Telephone Numbers My Weather Data Folder Route Weather Data Regional Weather Data Local Weather Data To the Forecasts and Observations / NOTAM section
Request Generated 04/23/2014 at 14:53:33 UTC . Weather information available at that time is displayed.

METAR/TAF

SASKATOON/JOHN G. DIEFENBAKER INTL/SK    

METAR CYXE 231400Z 11021G26KT 15SM BKN080 OVC120 06/01 A2958 RMK
AC6AC2 SLP031=
METAR CYXE 231300Z 10017G23KT 15SM OVC120 06/01 A2958 RMK AC8 SLP029=
METAR CYXE 231200Z 10017G24KT 15SM BKN120 OVC250 07/01 A2959 RMK
AC6CI2 SLP031=

TAF CYXE 231138Z 2312/2412 11020G30KT P6SM BKN120
FM231500 12025G35KT P6SM -RA OVC050 TEMPO 2315/2321 OVC020
FM232100 12025G35KT 5SM -RA BR SCT003 OVC008 TEMPO 2321/2412 6SM
-RA BR OVC020
BECMG 2406/2408 08015G25KT
RMK NXT FCST BY 231800Z=
Your time UTC time
Weather data provided by Environment Canada and NAV CANADA